Villa Beach, Washington
Current Conditions -  °F | °C
As of 12:58 AM on Friday 31 Oct 2014 (Local Time) from KGRF Reporting Station
Light Rain Light Rain  
Wind Chill: 52°   Ceiling: 4200
Heat Index: 52°   Visibility: 10mi
Dew Point: 52°   Wind: 6mph
Humidity: 99%   Direction: 130°SE
Pressure: 29.77"   Gusts: NA
Location:  47.1608°N, 122.692°W
Report Text: KGRF 310758Z AUTO 13005KT 10SM -RA OVC042 11/11 A2977 RMK AO2 SLP085 P0007 T01120111 401430110 $
Loading
Personal Weather Stations






























Interactive Weather Map
Tropical Storm Tracking
New forecast layout! Learn more

10-Day Weather Forecast

Advertisements
Track Severe Weather on mobile